createdAt,value
2018-09-19T00:01:02.226Z,8.50
2018-09-19T00:03:30.458Z,8.68
2018-09-19T00:05:59.163Z,9.30
2018-09-19T00:08:27.326Z,8.90
2018-09-19T00:10:55.637Z,7.47
2018-09-19T00:13:23.791Z,7.20
2018-09-19T00:15:52.194Z,8.30
2018-09-19T00:18:20.649Z,8.27
2018-09-19T00:20:49.195Z,7.57
2018-09-19T00:23:17.313Z,7.47
2018-09-19T00:25:45.533Z,7.77
2018-09-19T00:28:13.870Z,6.27
2018-09-19T00:30:42.172Z,7.30
2018-09-19T00:33:10.451Z,7.17
2018-09-19T00:35:38.595Z,5.63
2018-09-19T00:38:07.074Z,6.17
2018-09-19T00:40:35.240Z,6.60
2018-09-19T00:43:03.476Z,6.33
2018-09-19T00:45:31.592Z,6.30
2018-09-19T00:47:59.833Z,5.93
2018-09-19T00:50:27.926Z,6.00
2018-09-19T00:52:56.422Z,5.83
2018-09-19T00:55:24.649Z,5.47
2018-09-19T00:57:52.820Z,5.77
2018-09-19T01:00:21.193Z,5.90
2018-09-19T01:02:49.306Z,5.73
2018-09-19T01:05:17.659Z,5.33
2018-09-19T01:07:46.401Z,5.70
2018-09-19T01:10:14.580Z,5.03
2018-09-19T01:12:42.759Z,5.93
2018-09-19T01:15:10.952Z,4.57
2018-09-19T01:17:39.213Z,4.73
2018-09-19T01:20:07.354Z,4.73
2018-09-19T01:23:06.595Z,4.10
2018-09-19T01:25:34.799Z,4.25
2018-09-19T01:28:03.228Z,4.93
2018-09-19T01:30:31.446Z,4.45
2018-09-19T01:32:59.659Z,4.70
2018-09-19T01:35:28.067Z,4.62
2018-09-19T01:37:56.295Z,4.77
2018-09-19T01:40:24.409Z,5.60
2018-09-19T01:42:52.934Z,4.50
2018-09-19T01:45:21.066Z,4.93
2018-09-19T01:47:49.419Z,4.30
2018-09-19T01:50:18.085Z,4.20
2018-09-19T01:52:46.195Z,4.13
2018-09-19T01:55:15.450Z,5.17
2018-09-19T01:57:43.586Z,4.03
2018-09-19T02:00:11.749Z,3.93
2018-09-19T02:02:39.963Z,3.67
2018-09-19T02:05:08.445Z,3.27
2018-09-19T02:07:36.906Z,4.30
2018-09-19T02:10:05.054Z,3.53
2018-09-19T02:12:33.769Z,4.27
2018-09-19T02:15:01.934Z,3.80
2018-09-19T02:17:30.130Z,4.17
2018-09-19T02:19:58.278Z,3.90
2018-09-19T02:22:26.425Z,3.87
2018-09-19T02:24:55.049Z,3.73
2018-09-19T02:27:23.192Z,3.98
2018-09-19T02:29:51.466Z,4.20
2018-09-19T02:32:19.639Z,3.67
2018-09-19T02:34:47.845Z,3.50
2018-09-19T02:37:15.981Z,3.40
2018-09-19T02:39:44.428Z,4.03
2018-09-19T02:42:12.554Z,4.03
2018-09-19T02:44:40.769Z,3.90
2018-09-19T02:47:08.948Z,4.37
2018-09-19T02:49:37.103Z,4.83
2018-09-19T02:52:05.246Z,3.47
2018-09-19T02:54:33.433Z,3.65
2018-09-19T02:57:01.930Z,3.73
2018-09-19T02:59:30.075Z,4.15
2018-09-19T03:01:58.448Z,3.37
2018-09-19T03:04:26.657Z,4.27
2018-09-19T03:06:54.803Z,3.77
2018-09-19T03:09:22.970Z,3.93
2018-09-19T03:11:51.225Z,4.60
2018-09-19T03:14:19.318Z,3.67
2018-09-19T03:16:47.542Z,4.50
2018-09-19T03:19:16.609Z,3.97
2018-09-19T03:21:44.846Z,4.27
2018-09-19T03:24:12.949Z,4.40
2018-09-19T03:26:42.265Z,4.60
2018-09-19T03:29:10.519Z,4.67
2018-09-19T03:31:38.712Z,3.73
2018-09-19T03:34:07.197Z,4.10
2018-09-19T03:36:35.391Z,4.40
2018-09-19T03:39:04.116Z,4.03
2018-09-19T03:41:32.537Z,4.22
2018-09-19T03:44:00.751Z,4.43
2018-09-19T03:46:28.861Z,3.55
2018-09-19T03:48:57.100Z,4.20
2018-09-19T03:51:25.251Z,3.92
2018-09-19T03:53:53.429Z,3.83
2018-09-19T03:56:21.555Z,4.50
2018-09-19T03:58:49.766Z,4.20
2018-09-19T04:01:17.958Z,4.87
2018-09-19T04:03:46.081Z,4.13
2018-09-19T04:06:14.427Z,4.30
2018-09-19T04:08:47.471Z,4.07
2018-09-19T04:11:15.627Z,3.83
2018-09-19T04:13:43.917Z,4.27
2018-09-19T04:16:12.134Z,3.70
2018-09-19T04:18:40.264Z,4.73
2018-09-19T04:21:08.521Z,4.77
2018-09-19T04:23:36.733Z,4.20
2018-09-19T04:26:05.160Z,4.83
2018-09-19T04:28:33.265Z,4.10
2018-09-19T04:31:01.645Z,4.10
2018-09-19T04:33:30.149Z,4.30
2018-09-19T04:35:58.305Z,3.70
2018-09-19T04:38:26.510Z,4.47
2018-09-19T04:40:54.966Z,4.03
2018-09-19T04:43:23.208Z,4.50
2018-09-19T04:45:51.305Z,4.20
2018-09-19T04:48:19.481Z,3.80
2018-09-19T04:50:47.760Z,4.93
2018-09-19T04:53:15.966Z,4.23
2018-09-19T04:55:44.115Z,4.30
2018-09-19T04:58:12.326Z,4.50
2018-09-19T05:00:40.467Z,4.40
2018-09-19T05:03:08.714Z,4.53
2018-09-19T05:05:36.973Z,5.00
2018-09-19T05:08:05.566Z,4.63
2018-09-19T05:10:34.235Z,5.33
2018-09-19T05:13:02.348Z,5.67
2018-09-19T05:15:30.543Z,5.50
2018-09-19T05:17:58.910Z,4.30
2018-09-19T05:20:27.119Z,4.85
2018-09-19T05:22:55.251Z,5.33
2018-09-19T05:25:23.633Z,5.97
2018-09-19T05:27:51.905Z,5.90
2018-09-19T05:30:19.995Z,5.77
2018-09-19T05:32:48.498Z,5.92
2018-09-19T05:35:16.658Z,6.37
2018-09-19T05:37:45.357Z,6.40
2018-09-19T05:40:14.097Z,5.33
2018-09-19T05:42:42.254Z,6.13
2018-09-19T05:45:10.437Z,6.73
2018-09-19T05:47:38.559Z,6.73
2018-09-19T05:50:06.717Z,6.00
2018-09-19T05:52:34.897Z,7.67
2018-09-19T05:55:03.077Z,6.43
2018-09-19T05:57:31.159Z,6.60
2018-09-19T05:59:59.310Z,7.03
2018-09-19T06:02:27.825Z,6.92
2018-09-19T06:04:56.005Z,7.50
2018-09-19T06:07:24.818Z,7.25
2018-09-19T06:09:52.941Z,8.30
2018-09-19T06:13:24.291Z,9.10
2018-09-19T06:15:52.530Z,7.93
2018-09-19T06:18:20.661Z,10.03
2018-09-19T06:20:48.945Z,7.43
2018-09-19T06:23:17.073Z,8.40
2018-09-19T06:25:45.347Z,8.70
2018-09-19T06:28:13.583Z,7.77
2018-09-19T06:30:41.703Z,7.27
2018-09-19T06:33:10.019Z,8.20
2018-09-19T06:35:38.036Z,7.90
2018-09-19T06:38:06.913Z,7.60
2018-09-19T06:40:35.121Z,8.73
2018-09-19T06:43:03.309Z,8.43
2018-09-19T06:45:32.115Z,8.07
2018-09-19T06:48:00.610Z,7.43
2018-09-19T06:50:28.730Z,7.97
2018-09-19T06:52:57.784Z,7.72
2018-09-19T06:55:25.943Z,7.53
2018-09-19T06:57:54.086Z,7.23
2018-09-19T07:00:22.329Z,6.97
2018-09-19T07:02:50.437Z,7.20
2018-09-19T07:05:18.676Z,7.33
2018-09-19T07:07:46.905Z,8.03
2018-09-19T07:10:19.697Z,7.63
2018-09-19T07:12:48.491Z,7.37
2018-09-19T07:15:16.786Z,7.10
2018-09-19T07:17:44.921Z,6.87
2018-09-19T07:20:13.522Z,6.93
2018-09-19T07:22:41.658Z,6.62
2018-09-19T07:25:10.824Z,6.87
2018-09-19T07:27:39.022Z,6.20
2018-09-19T07:30:07.427Z,5.67
2018-09-19T07:32:35.594Z,6.35
2018-09-19T07:35:04.668Z,5.75
2018-09-19T07:37:33.091Z,5.83
2018-09-19T07:40:01.248Z,5.17
2018-09-19T07:42:29.674Z,6.20
2018-09-19T07:44:57.818Z,5.62
2018-09-19T07:47:26.002Z,4.60
2018-09-19T07:49:54.204Z,4.90
2018-09-19T07:52:22.853Z,4.25
2018-09-19T07:54:51.057Z,3.75
2018-09-19T07:57:19.552Z,4.56
2018-09-19T07:59:47.729Z,4.58
2018-09-19T08:02:16.360Z,3.67
2018-09-19T08:04:44.485Z,3.85
2018-09-19T08:07:12.793Z,4.80
2018-09-19T08:09:41.029Z,4.00
2018-09-19T08:12:09.137Z,3.87
2018-09-19T08:14:37.738Z,3.20
2018-09-19T08:17:06.256Z,3.67
2018-09-19T08:19:34.382Z,3.62
2018-09-19T08:22:02.577Z,3.60
2018-09-19T08:24:30.851Z,3.20
2018-09-19T08:26:59.105Z,3.00
2018-09-19T08:29:27.906Z,3.40
2018-09-19T08:31:56.149Z,3.60
2018-09-19T08:34:24.245Z,3.42
2018-09-19T08:36:52.890Z,3.37
2018-09-19T08:39:21.257Z,3.77
2018-09-19T08:41:49.385Z,3.60
2018-09-19T08:44:17.783Z,3.08
2018-09-19T08:46:46.012Z,2.42
2018-09-19T08:49:15.294Z,3.10
2018-09-19T08:51:43.434Z,2.45
2018-09-19T08:54:11.746Z,2.20
2018-09-19T08:56:39.878Z,2.50
2018-09-19T08:59:08.117Z,2.40
2018-09-19T09:01:36.444Z,2.10
2018-09-19T09:04:04.612Z,2.25
2018-09-19T09:06:32.849Z,1.90
2018-09-19T09:09:01.088Z,2.20
2018-09-19T09:11:29.357Z,2.50
2018-09-19T09:13:57.530Z,2.22
2018-09-19T09:16:25.890Z,1.92
2018-09-19T09:18:54.278Z,1.98
2018-09-19T09:21:22.874Z,1.95
2018-09-19T09:23:51.133Z,2.15
2018-09-19T09:26:19.333Z,1.92
2018-09-19T09:28:47.985Z,2.00
2018-09-19T09:31:16.232Z,1.87
2018-09-19T09:33:45.271Z,1.65
2018-09-19T09:36:13.461Z,1.95
2018-09-19T09:38:41.598Z,1.80
2018-09-19T09:41:10.688Z,1.87
2018-09-19T09:43:39.306Z,1.80
2018-09-19T09:46:07.380Z,1.77
2018-09-19T09:48:35.622Z,1.62
2018-09-19T09:51:03.862Z,1.47
2018-09-19T09:56:00.250Z,1.80
2018-09-19T09:58:28.326Z,1.40
2018-09-19T10:00:56.949Z,1.82
2018-09-19T10:03:25.218Z,1.93
2018-09-19T10:05:53.409Z,1.67
2018-09-19T10:08:21.541Z,1.60
2018-09-19T10:10:50.039Z,1.50
2018-09-19T10:13:18.237Z,1.87
2018-09-19T10:15:46.387Z,1.72
2018-09-19T10:18:14.643Z,1.57
2018-09-19T10:20:43.230Z,1.40
2018-09-19T10:23:11.486Z,1.65
2018-09-19T10:25:39.645Z,1.62
2018-09-19T10:28:07.775Z,1.57
2018-09-19T10:30:36.699Z,1.50
2018-09-19T10:33:05.146Z,2.10
2018-09-19T10:35:33.926Z,1.60
2018-09-19T10:38:02.562Z,1.70
2018-09-19T10:40:31.618Z,1.60
2018-09-19T10:43:02.114Z,1.30
2018-09-19T10:45:30.555Z,1.50
2018-09-19T10:47:58.762Z,1.65
2018-09-19T10:50:26.929Z,1.60
2018-09-19T10:52:55.339Z,1.90
2018-09-19T10:55:23.581Z,1.17
2018-09-19T10:57:51.688Z,1.70
2018-09-19T11:00:19.911Z,1.65
2018-09-19T11:02:48.086Z,2.10
2018-09-19T11:05:17.201Z,1.54
2018-09-19T11:07:45.811Z,1.65
2018-09-19T11:10:13.945Z,1.62
2018-09-19T11:12:42.153Z,1.72
2018-09-19T11:15:10.699Z,1.75
2018-09-19T11:17:39.352Z,1.60
2018-09-19T11:20:08.180Z,1.70
2018-09-19T11:22:36.794Z,1.50
2018-09-19T11:25:05.397Z,1.60
2018-09-19T11:27:33.613Z,1.70
2018-09-19T11:30:01.796Z,1.53
2018-09-19T11:32:29.955Z,1.47
2018-09-19T11:34:59.288Z,1.67
2018-09-19T11:37:27.835Z,1.67
2018-09-19T11:39:56.100Z,1.52
2018-09-19T11:42:24.282Z,1.50
2018-09-19T11:44:53.025Z,1.60
2018-09-19T11:47:21.122Z,2.02
2018-09-19T11:49:49.317Z,1.87
2018-09-19T11:52:17.944Z,1.67
2018-09-19T11:54:46.714Z,1.72
2018-09-19T11:57:15.311Z,1.50
2018-09-19T11:59:43.750Z,1.70
2018-09-19T12:02:11.958Z,1.67
2018-09-19T12:04:40.286Z,1.65
2018-09-19T12:07:08.723Z,1.32
2018-09-19T12:09:37.511Z,1.67
2018-09-19T12:12:06.118Z,1.50
2018-09-19T12:14:34.382Z,1.50
2018-09-19T12:17:02.673Z,1.70
2018-09-19T12:19:30.963Z,1.85
2018-09-19T12:22:00.957Z,1.60
2018-09-19T12:24:29.078Z,1.77
2018-09-19T12:26:57.386Z,1.50
2018-09-19T12:29:25.540Z,1.20
2018-09-19T12:31:53.762Z,1.52
2018-09-19T12:34:21.885Z,1.30
2018-09-19T12:36:50.397Z,1.20
2018-09-19T12:39:18.577Z,1.25
2018-09-19T12:41:47.638Z,1.15
2018-09-19T12:44:15.842Z,1.45
2018-09-19T12:46:44.007Z,1.60
2018-09-19T12:49:12.260Z,1.30
2018-09-19T12:51:40.330Z,1.50
2018-09-19T12:54:09.237Z,1.40
2018-09-19T12:56:37.499Z,1.40
2018-09-19T12:59:05.770Z,1.90
2018-09-19T13:01:34.450Z,1.52
2018-09-19T13:04:02.524Z,1.30
2018-09-19T13:06:31.498Z,1.27
2018-09-19T13:08:59.613Z,1.20
2018-09-19T13:11:27.783Z,1.10
2018-09-19T13:13:56.606Z,1.52
2018-09-19T13:16:24.761Z,1.40
2018-09-19T13:18:52.930Z,1.30
2018-09-19T13:21:21.330Z,1.40
2018-09-19T13:23:49.476Z,1.10
2018-09-19T13:26:17.701Z,1.22
2018-09-19T13:28:46.077Z,1.45
2018-09-19T13:31:14.234Z,1.30
2018-09-19T13:33:42.408Z,1.70
2018-09-19T13:36:11.085Z,1.50
2018-09-19T13:38:39.322Z,1.80
2018-09-19T13:41:08.369Z,1.90
2018-09-19T13:43:36.525Z,1.45
2018-09-19T13:46:04.817Z,1.57
2018-09-19T13:48:33.225Z,1.50
2018-09-19T13:51:06.881Z,1.90
2018-09-19T13:53:35.066Z,1.90
2018-09-19T13:56:03.345Z,1.47
2018-09-19T13:58:32.501Z,2.00
2018-09-19T14:01:00.941Z,2.00
2018-09-19T14:03:29.095Z,1.95
2018-09-19T14:05:57.311Z,2.20
2018-09-19T14:08:25.454Z,1.80
2018-09-19T14:10:53.625Z,1.50
2018-09-19T14:13:22.502Z,1.95
2018-09-19T14:15:50.722Z,2.10
2018-09-19T14:18:18.870Z,1.85
2018-09-19T14:20:48.473Z,1.95
2018-09-19T14:23:16.632Z,2.00
2018-09-19T14:25:44.701Z,2.15
2018-09-19T14:28:13.634Z,2.25
2018-09-19T14:30:41.885Z,2.30
2018-09-19T14:33:12.777Z,2.08
2018-09-19T14:35:41.274Z,1.80
2018-09-19T14:38:09.990Z,2.27
2018-09-19T14:40:38.466Z,2.40
2018-09-19T14:43:07.206Z,2.72
2018-09-19T14:45:35.322Z,2.20
2018-09-19T14:48:03.589Z,2.22
2018-09-19T14:50:31.817Z,2.50
2018-09-19T14:53:00.098Z,2.50
2018-09-19T14:55:28.298Z,2.42
2018-09-19T14:57:56.402Z,2.17
2018-09-19T15:00:24.608Z,2.50
2018-09-19T15:02:53.174Z,2.45
2018-09-19T15:05:21.329Z,2.30
2018-09-19T15:07:49.949Z,2.22
2018-09-19T15:10:18.381Z,2.70
2018-09-19T15:12:46.814Z,2.00
2018-09-19T15:15:14.957Z,2.22
2018-09-19T15:17:43.349Z,2.20
2018-09-19T15:20:11.927Z,2.30
2018-09-19T15:22:40.106Z,2.70
2018-09-19T15:25:08.601Z,2.83
2018-09-19T15:27:36.838Z,2.47
2018-09-19T15:30:05.429Z,2.60
2018-09-19T15:32:33.836Z,2.30
2018-09-19T15:35:02.195Z,2.72
2018-09-19T15:37:30.845Z,2.60
2018-09-19T15:40:00.325Z,2.40
2018-09-19T15:42:28.458Z,2.44
2018-09-19T15:44:56.678Z,2.80
2018-09-19T15:47:25.210Z,3.00
2018-09-19T15:49:53.893Z,3.10
2018-09-19T15:52:22.617Z,2.70
2018-09-19T15:54:51.498Z,3.00
2018-09-19T15:57:19.770Z,2.60
2018-09-19T15:59:48.278Z,2.70
2018-09-19T16:02:16.738Z,3.08
2018-09-19T16:04:44.824Z,2.70
2018-09-19T16:07:14.462Z,2.52
2018-09-19T16:09:43.638Z,2.90
2018-09-19T16:12:12.613Z,3.10
2018-09-19T16:14:41.643Z,2.80
2018-09-19T16:17:10.290Z,3.27
2018-09-19T16:19:39.273Z,3.10
2018-09-19T16:22:07.930Z,2.83
2018-09-19T16:24:36.858Z,2.72
2018-09-19T16:27:05.913Z,2.80
2018-09-19T16:29:34.067Z,2.90
2018-09-19T16:32:03.136Z,2.95
2018-09-19T16:34:31.977Z,3.10
2018-09-19T16:37:00.278Z,3.15
2018-09-19T16:39:28.796Z,2.97
2018-09-19T16:41:57.117Z,3.30
2018-09-19T16:44:25.402Z,3.13
2018-09-19T16:46:55.074Z,3.08
2018-09-19T16:49:23.222Z,2.70
2018-09-19T16:51:52.071Z,3.58
2018-09-19T16:54:20.390Z,2.90
2018-09-19T16:56:48.718Z,2.95
2018-09-19T16:59:16.883Z,3.60
2018-09-19T17:01:45.057Z,2.90
2018-09-19T17:04:13.386Z,3.42
2018-09-19T17:06:41.612Z,3.40
2018-09-19T17:09:10.569Z,3.17
2018-09-19T17:11:38.732Z,3.10
2018-09-19T17:14:06.942Z,3.40
2018-09-19T17:16:35.609Z,3.30
2018-09-19T17:19:04.392Z,3.70
2018-09-19T17:21:33.423Z,3.27
2018-09-19T17:24:03.124Z,3.47
2018-09-19T17:26:31.291Z,3.17
2018-09-19T17:29:00.030Z,3.50
2018-09-19T17:31:28.387Z,3.30
2018-09-19T17:33:56.966Z,3.08
2018-09-19T17:36:25.867Z,3.33
2018-09-19T17:38:55.329Z,3.25
2018-09-19T17:41:23.513Z,3.22
2018-09-19T17:43:52.197Z,3.20
2018-09-19T17:46:20.993Z,3.23
2018-09-19T17:48:49.279Z,3.27
2018-09-19T17:51:17.481Z,3.20
2018-09-19T17:53:45.839Z,3.22
2018-09-19T17:56:14.237Z,3.45
2018-09-19T17:58:42.535Z,3.67
2018-09-19T18:01:11.446Z,3.83
2018-09-19T18:03:39.974Z,2.95
2018-09-19T18:06:08.513Z,3.47
2018-09-19T18:08:36.699Z,3.17
2018-09-19T18:11:04.972Z,3.10
2018-09-19T18:13:33.801Z,3.35
2018-09-19T18:16:02.017Z,4.12
2018-09-19T18:18:31.087Z,5.93
2018-09-19T18:20:59.862Z,11.18
2018-09-19T18:23:28.005Z,13.10
2018-09-19T18:31:38.361Z,15.83
2018-09-19T18:34:07.171Z,15.32
2018-09-19T18:36:35.901Z,18.90
2018-09-19T18:39:05.507Z,18.27
2018-09-19T18:41:33.686Z,18.70
2018-09-19T18:44:02.381Z,20.20
2018-09-19T18:46:30.583Z,19.07
2018-09-19T18:48:58.941Z,20.02
2018-09-19T18:51:27.138Z,21.35
2018-09-19T18:53:55.272Z,22.58
2018-09-19T18:56:23.563Z,24.45
2018-09-19T18:58:52.046Z,24.87
2018-09-19T19:01:21.017Z,24.67
2018-09-19T19:03:50.858Z,23.70
2018-09-19T19:06:19.159Z,25.02
2018-09-19T19:08:48.521Z,24.95
2018-09-19T19:11:16.686Z,25.37
2018-09-19T19:13:44.806Z,27.13
2018-09-19T19:16:13.323Z,27.98
2018-09-19T19:18:41.789Z,27.58
2018-09-19T19:21:10.655Z,26.62
2018-09-19T19:23:38.807Z,28.05
2018-09-19T19:26:07.207Z,28.65
2018-09-19T19:28:35.960Z,28.35
2018-09-19T19:31:05.121Z,27.85
2018-09-19T19:33:33.443Z,27.70
2018-09-19T19:36:01.588Z,27.48
2018-09-19T19:38:29.871Z,28.20
2018-09-19T19:40:58.650Z,27.30
2018-09-19T19:43:26.929Z,28.38
2018-09-19T19:45:56.584Z,26.97
2018-09-19T19:48:24.874Z,29.07
2018-09-19T19:50:53.037Z,28.50
2018-09-19T19:53:21.291Z,27.40
2018-09-19T19:55:50.305Z,27.70
2018-09-19T19:58:18.478Z,27.98
2018-09-19T20:00:47.206Z,29.27
2018-09-19T20:03:15.782Z,29.10
2018-09-19T20:05:44.919Z,29.15
2018-09-19T20:08:13.818Z,27.63
2018-09-19T20:10:41.990Z,27.00
2018-09-19T20:13:10.353Z,25.80
2018-09-19T20:15:38.555Z,25.82
2018-09-19T20:18:06.735Z,24.35
2018-09-19T20:20:35.315Z,23.05
2018-09-19T20:23:03.787Z,23.27
2018-09-19T20:25:32.198Z,23.03
2018-09-19T20:28:00.643Z,22.27
2018-09-19T20:30:29.241Z,22.57
2018-09-19T20:32:57.366Z,21.02
2018-09-19T20:35:25.822Z,20.62
2018-09-19T20:37:54.263Z,20.05
2018-09-19T20:40:22.435Z,18.83
2018-09-19T20:42:50.838Z,19.70
2018-09-19T20:45:18.982Z,18.40
2018-09-19T20:47:47.895Z,17.37
2018-09-19T20:50:16.782Z,17.37
2018-09-19T20:52:44.937Z,17.65
2018-09-19T20:55:13.006Z,18.35
2018-09-19T20:57:41.278Z,19.30
2018-09-19T21:00:10.484Z,18.62
2018-09-19T21:02:38.925Z,17.97
2018-09-19T21:05:07.521Z,16.77
2018-09-19T21:07:36.334Z,16.57
2018-09-19T21:10:04.588Z,16.07
2018-09-19T21:12:33.042Z,16.97
2018-09-19T21:15:01.158Z,18.50
2018-09-19T21:17:29.396Z,16.70
2018-09-19T21:19:57.693Z,16.02
2018-09-19T21:22:26.280Z,16.87
2018-09-19T21:24:54.937Z,16.23
2018-09-19T21:27:23.078Z,16.37
2018-09-19T21:29:51.795Z,15.47
2018-09-19T21:32:20.321Z,16.72
2018-09-19T21:34:48.460Z,15.15
2018-09-19T21:37:17.674Z,15.24
2018-09-19T21:39:45.825Z,14.73
2018-09-19T21:42:14.182Z,13.97
2018-09-19T21:44:42.382Z,13.22
2018-09-19T21:47:10.875Z,12.50
2018-09-19T21:49:39.794Z,12.30
2018-09-19T21:52:08.621Z,10.53
2018-09-19T21:54:37.578Z,11.08
2018-09-19T21:57:06.511Z,9.70
2018-09-19T21:59:34.828Z,9.73
2018-09-19T22:02:03.869Z,8.30
2018-09-19T22:04:32.778Z,7.42
2018-09-19T22:07:01.495Z,7.80
2018-09-19T22:09:30.451Z,5.55
2018-09-19T22:12:14.535Z,6.35
2018-09-19T22:14:43.594Z,5.40
2018-09-19T22:17:12.033Z,5.22
2018-09-19T22:19:41.082Z,5.08
2018-09-19T22:22:09.241Z,5.35
2018-09-19T22:24:37.420Z,4.97
2018-09-19T22:27:06.399Z,5.40
2018-09-19T22:29:35.790Z,4.90
2018-09-19T22:32:04.065Z,4.40
2018-09-19T22:34:32.970Z,4.35
2018-09-19T22:37:02.041Z,4.15
2018-09-19T22:39:30.446Z,4.23
2018-09-19T22:41:59.216Z,4.62
2018-09-19T22:44:27.494Z,4.22
2018-09-19T22:46:56.233Z,4.50
2018-09-19T22:49:25.181Z,3.93
2018-09-19T22:51:54.213Z,4.08
2018-09-19T22:54:22.372Z,3.90
2018-09-19T22:56:51.970Z,3.45
2018-09-19T22:59:20.130Z,3.85
2018-09-19T23:01:49.164Z,3.60
2018-09-19T23:04:18.570Z,3.60
2018-09-19T23:06:47.176Z,3.42
2018-09-19T23:09:15.728Z,3.35
2018-09-19T23:11:44.324Z,3.77
2018-09-19T23:14:12.914Z,4.03
2018-09-19T23:16:41.366Z,4.35
2018-09-19T23:19:09.590Z,4.37
2018-09-19T23:21:37.902Z,4.08
2018-09-19T23:24:06.957Z,4.37
2018-09-19T23:26:35.810Z,4.80
2018-09-19T23:29:04.123Z,4.42
2018-09-19T23:31:32.879Z,5.00
2018-09-19T23:34:01.039Z,4.40
2018-09-19T23:36:29.509Z,5.77
2018-09-19T23:38:57.998Z,4.90
2018-09-19T23:41:26.233Z,5.33
2018-09-19T23:43:54.982Z,4.90
2018-09-19T23:46:24.275Z,4.80
2018-09-19T23:48:53.050Z,5.30
2018-09-19T23:51:22.071Z,5.77
2018-09-19T23:53:50.826Z,5.45
2018-09-19T23:56:19.524Z,5.27
2018-09-19T23:58:48.587Z,5.60
